Time,TemperatureF,DewpointF,PressureIn,WindDirection,WindDirectionDegrees,WindSpeedMPH,WindSpeedGustMPH,Humidity,HourlyPrecipIn,Conditions,Clouds,dailyrainin,SoftwareType,DateUTC
2013-03-19 00:29:00,22.0,17.0,29.81,SE,135,3.0,4.0,84,0.00,,,0.00,TxWx,2013-03-19 04:29:00,
2013-03-19 00:34:00,22.0,17.0,29.81,SE,135,9.0,11.0,85,0.00,,,0.00,TxWx,2013-03-19 04:34:00,
2013-03-19 00:39:00,22.0,17.0,29.80,ESE,112,4.0,10.0,86,0.00,,,0.00,TxWx,2013-03-19 04:39:00,
2013-03-19 00:44:00,22.0,18.0,29.80,SSE,157,5.0,10.0,87,0.00,,,0.00,TxWx,2013-03-19 04:44:00,
2013-03-19 00:50:00,22.0,18.0,29.80,ESE,112,6.0,12.0,88,0.00,,,0.00,TxWx,2013-03-19 04:50:00,
2013-03-19 00:55:00,22.0,18.0,29.79,East,90,3.0,5.0,89,0.00,,,0.00,TxWx,2013-03-19 04:55:00,
2013-03-19 01:00:00,22.0,18.0,29.79,East,90,6.0,7.0,90,0.00,,,0.00,TxWx,2013-03-19 05:00:00,
2013-03-19 01:06:00,21.0,18.0,29.79,ESE,112,4.0,4.0,91,0.00,,,0.00,TxWx,2013-03-19 05:06:00,
2013-03-19 01:11:00,22.0,19.0,29.79,SE,135,2.0,3.0,92,0.00,,,0.00,TxWx,2013-03-19 05:11:00,
2013-03-19 01:16:00,22.0,19.0,29.79,SE,135,4.0,4.0,93,0.00,,,0.00,TxWx,2013-03-19 05:16:00,
2013-03-19 01:22:00,21.0,18.0,29.78,East,90,7.0,7.0,93,0.00,,,0.00,TxWx,2013-03-19 05:22:00,
2013-03-19 01:27:00,21.0,18.0,29.78,ESE,112,6.0,8.0,94,0.00,,,0.00,TxWx,2013-03-19 05:27:00,
2013-03-19 01:32:00,21.0,19.0,29.77,SE,135,6.0,6.0,95,0.00,,,0.00,TxWx,2013-03-19 05:32:00,
2013-03-19 01:37:00,21.0,19.0,29.77,SE,135,5.0,6.0,95,0.00,,,0.00,TxWx,2013-03-19 05:37:00,
2013-03-19 01:43:00,21.0,19.0,29.77,ESE,112,5.0,6.0,95,0.00,,,0.00,TxWx,2013-03-19 05:43:00,
2013-03-19 01:48:00,21.0,19.0,29.76,SSE,157,5.0,7.0,96,0.00,,,0.00,TxWx,2013-03-19 05:48:00,
2013-03-19 01:53:00,21.0,19.0,29.77,ESE,112,8.0,8.0,96,0.00,,,0.00,TxWx,2013-03-19 05:53:00,
2013-03-19 01:58:00,21.0,19.0,29.76,ESE,112,6.0,6.0,96,0.00,,,0.00,TxWx,2013-03-19 05:58:00,
2013-03-19 02:03:00,21.0,19.0,29.76,ESE,112,6.0,8.0,97,0.00,,,0.00,TxWx,2013-03-19 06:03:00,
2013-03-19 02:08:00,21.0,19.0,29.75,ESE,112,5.0,5.0,97,0.00,,,0.00,TxWx,2013-03-19 06:08:00,
2013-03-19 02:14:00,21.0,19.0,29.75,North,0,4.0,7.0,97,0.00,,,0.00,TxWx,2013-03-19 06:14:00,
2013-03-19 02:19:00,21.0,19.0,29.75,ESE,112,5.0,5.0,97,0.00,,,0.00,TxWx,2013-03-19 06:19:00,
2013-03-19 02:24:00,21.0,19.0,29.75,East,90,5.0,8.0,98,0.00,,,0.00,TxWx,2013-03-19 06:24:00,
2013-03-19 02:29:00,21.0,19.0,29.74,SE,135,3.0,4.0,98,0.00,,,0.00,TxWx,2013-03-19 06:29:00,
2013-03-19 02:35:00,21.0,20.0,29.74,ESE,112,8.0,8.0,98,0.00,,,0.00,TxWx,2013-03-19 06:35:00,
2013-03-19 02:40:00,21.0,20.0,29.74,ESE,112,4.0,5.0,98,0.00,,,0.00,TxWx,2013-03-19 06:40:00,
2013-03-19 02:45:00,21.0,20.0,29.74,SSE,157,5.0,5.0,99,0.00,,,0.00,TxWx,2013-03-19 06:45:00,
2013-03-19 02:51:00,21.0,20.0,29.73,ESE,112,3.0,3.0,99,0.00,,,0.00,TxWx,2013-03-19 06:51:00,
2013-03-19 02:56:00,21.0,20.0,29.74,ESE,112,5.0,5.0,99,0.00,,,0.00,TxWx,2013-03-19 06:56:00,
2013-03-19 03:02:00,21.0,20.0,29.73,ESE,112,10.0,10.0,99,0.00,,,0.00,TxWx,2013-03-19 07:02:00,
2013-03-19 03:07:00,21.0,20.0,29.73,ESE,112,4.0,7.0,99,0.00,,,0.00,TxWx,2013-03-19 07:07:00,
2013-03-19 03:12:00,21.0,20.0,29.73,ESE,112,8.0,8.0,99,0.00,,,0.00,TxWx,2013-03-19 07:12:00,
2013-03-19 03:17:00,21.0,20.0,29.73,ESE,112,6.0,7.0,99,0.00,,,0.00,TxWx,2013-03-19 07:17:00,
2013-03-19 03:23:00,21.0,20.0,29.72,East,90,4.0,4.0,99,0.00,,,0.00,TxWx,2013-03-19 07:23:00,
2013-03-19 03:28:00,21.0,20.0,29.72,ESE,112,5.0,5.0,99,0.00,,,0.00,TxWx,2013-03-19 07:28:00,
2013-03-19 03:33:00,21.0,20.0,29.72,East,90,5.0,8.0,99,0.00,,,0.00,TxWx,2013-03-19 07:33:00,
2013-03-19 03:38:00,21.0,21.0,29.71,ESE,112,5.0,5.0,100,0.00,,,0.00,TxWx,2013-03-19 07:38:00,
2013-03-19 03:43:00,21.0,21.0,29.71,SE,135,7.0,8.0,100,0.00,,,0.00,TxWx,2013-03-19 07:43:00,
2013-03-19 03:48:00,21.0,21.0,29.71,ESE,112,6.0,6.0,100,0.00,,,0.00,TxWx,2013-03-19 07:48:00,
2013-03-19 03:54:00,21.0,21.0,29.70,ESE,112,7.0,7.0,100,0.00,,,0.00,TxWx,2013-03-19 07:54:00,
2013-03-19 03:59:00,21.0,21.0,29.70,ESE,112,3.0,4.0,100,0.00,,,0.00,TxWx,2013-03-19 07:59:00,
2013-03-19 04:05:00,21.0,21.0,29.70,ESE,112,5.0,5.0,100,0.00,,,0.00,TxWx,2013-03-19 08:05:00,
2013-03-19 04:10:00,21.0,21.0,29.69,ENE,67,6.0,6.0,100,0.00,,,0.00,TxWx,2013-03-19 08:10:00,
2013-03-19 04:15:00,21.0,21.0,29.68,ESE,112,5.0,6.0,100,0.00,,,0.00,TxWx,2013-03-19 08:15:00,
2013-03-19 04:21:00,21.0,21.0,29.69,SE,135,5.0,5.0,100,0.00,,,0.00,TxWx,2013-03-19 08:21:00,
2013-03-19 04:26:00,21.0,21.0,29.69,ESE,112,4.0,5.0,100,0.00,,,0.00,TxWx,2013-03-19 08:26:00,
2013-03-19 04:31:00,21.0,21.0,29.69,South,180,3.0,8.0,100,0.00,,,0.00,TxWx,2013-03-19 08:31:00,
2013-03-19 04:36:00,21.0,21.0,29.70,ESE,112,8.0,10.0,100,0.00,,,0.00,TxWx,2013-03-19 08:36:00,
2013-03-19 04:42:00,21.0,21.0,29.69,ESE,112,6.0,6.0,100,0.00,,,0.00,TxWx,2013-03-19 08:42:00,
2013-03-19 04:47:00,21.0,21.0,29.69,ESE,112,8.0,8.0,100,0.00,,,0.00,TxWx,2013-03-19 08:47:00,
2013-03-19 04:52:00,21.0,21.0,29.69,East,90,3.0,6.0,100,0.00,,,0.00,TxWx,2013-03-19 08:52:00,
2013-03-19 04:57:00,21.0,21.0,29.69,ESE,112,5.0,5.0,100,0.00,,,0.00,TxWx,2013-03-19 08:57:00,
2013-03-19 05:02:00,21.0,21.0,29.69,ESE,112,3.0,3.0,100,0.00,,,0.00,TxWx,2013-03-19 09:02:00,
2013-03-19 05:08:00,21.0,21.0,29.69,ESE,112,7.0,9.0,100,0.00,,,0.00,TxWx,2013-03-19 09:08:00,
2013-03-19 05:13:00,22.0,22.0,29.69,ESE,112,3.0,3.0,100,0.00,,,0.00,TxWx,2013-03-19 09:13:00,
2013-03-19 05:18:00,21.0,21.0,29.69,SE,135,5.0,5.0,100,0.00,,,0.00,TxWx,2013-03-19 09:18:00,
2013-03-19 05:23:00,21.0,21.0,29.69,ESE,112,5.0,6.0,100,0.00,,,0.00,TxWx,2013-03-19 09:23:00,
2013-03-19 05:29:00,22.0,22.0,29.69,ESE,112,5.0,5.0,100,0.00,,,0.00,TxWx,2013-03-19 09:29:00,
2013-03-19 05:34:00,22.0,22.0,29.68,ESE,112,6.0,6.0,100,0.00,,,0.00,TxWx,2013-03-19 09:34:00,
2013-03-19 05:39:00,22.0,22.0,29.68,East,90,6.0,7.0,100,0.00,,,0.00,TxWx,2013-03-19 09:39:00,
2013-03-19 05:44:00,22.0,22.0,29.68,ESE,112,8.0,8.0,100,0.00,,,0.00,TxWx,2013-03-19 09:44:00,
2013-03-19 05:49:00,22.0,22.0,29.67,ESE,112,7.0,8.0,100,0.00,,,0.00,TxWx,2013-03-19 09:49:00,
2013-03-19 05:54:00,22.0,22.0,29.67,ESE,112,6.0,6.0,100,0.00,,,0.00,TxWx,2013-03-19 09:54:00,
2013-03-19 05:55:00,27.0,27.0,29.50,ESE,112,1.0,2.0,100,0.00,,,0.00,TxWx,2013-03-19 09:55:00,
2013-03-19 05:59:00,22.0,22.0,29.66,South,180,3.0,5.0,100,0.00,,,0.00,TxWx,2013-03-19 09:59:00,
2013-03-19 06:00:00,27.0,27.0,29.50,ESE,112,5.0,5.0,100,0.00,,,0.00,TxWx,2013-03-19 10:00:00,
2013-03-19 06:01:00,27.0,27.0,29.50,ESE,112,4.0,4.0,100,0.00,,,0.00,TxWx,2013-03-19 10:01:00,
2013-03-19 06:02:00,27.0,27.0,29.50,NE,45,5.0,5.0,100,0.00,,,0.00,TxWx,2013-03-19 10:02:00,
2013-03-19 06:03:00,27.0,27.0,29.50,SE,135,2.0,2.0,100,0.00,,,0.00,TxWx,2013-03-19 10:03:00,
2013-03-19 06:04:00,22.0,22.0,29.66,ESE,112,5.0,6.0,100,0.00,,,0.00,TxWx,2013-03-19 10:04:00,
2013-03-19 06:05:00,27.0,27.0,29.50,ENE,67,4.0,5.0,100,0.00,,,0.00,TxWx,2013-03-19 10:05:00,
2013-03-19 06:10:00,22.0,22.0,29.67,ESE,112,6.0,6.0,100,0.00,,,0.00,TxWx,2013-03-19 10:10:00,
2013-03-19 06:15:00,22.0,22.0,29.67,East,90,6.0,6.0,100,0.00,,,0.00,TxWx,2013-03-19 10:15:00,
2013-03-19 06:21:00,22.0,22.0,29.66,NE,45,3.0,5.0,100,0.00,,,0.00,TxWx,2013-03-19 10:21:00,
2013-03-19 06:25:00,27.0,27.0,29.50,ESE,112,3.0,3.0,100,0.00,,,0.00,TxWx,2013-03-19 10:25:00,
2013-03-19 06:26:00,22.0,22.0,29.67,SE,135,6.0,9.0,100,0.00,,,0.00,TxWx,2013-03-19 10:26:00,
2013-03-19 06:27:00,27.0,27.0,29.50,SSW,202,1.0,3.0,100,0.00,,,0.00,TxWx,2013-03-19 10:27:00,
2013-03-19 06:28:00,27.0,27.0,29.50,SE,135,3.0,3.0,100,0.00,,,0.00,TxWx,2013-03-19 10:28:00,
2013-03-19 06:29:00,27.0,27.0,29.50,SE,135,4.0,5.0,100,0.00,,,0.00,TxWx,2013-03-19 10:29:00,
2013-03-19 06:32:00,22.0,22.0,29.66,ESE,112,6.0,6.0,100,0.00,,,0.00,TxWx,2013-03-19 10:32:00,
2013-03-19 06:37:00,22.0,22.0,29.66,East,90,5.0,5.0,100,0.00,,,0.00,TxWx,2013-03-19 10:37:00,
2013-03-19 06:42:00,22.0,22.0,29.66,ESE,112,5.0,6.0,100,0.00,,,0.00,TxWx,2013-03-19 10:42:00,
2013-03-19 06:48:00,22.0,22.0,29.66,SE,135,3.0,6.0,100,0.00,,,0.00,TxWx,2013-03-19 10:48:00,
2013-03-19 06:53:00,22.0,22.0,29.66,ESE,112,5.0,6.0,100,0.00,,,0.00,TxWx,2013-03-19 10:53:00,
2013-03-19 06:58:00,22.0,22.0,29.66,SSE,157,3.0,4.0,100,0.00,,,0.00,TxWx,2013-03-19 10:58:00,
2013-03-19 07:03:00,22.0,22.0,29.66,ESE,112,3.0,4.0,100,0.00,,,0.00,TxWx,2013-03-19 11:03:00,
2013-03-19 07:08:00,22.0,22.0,29.66,East,90,3.0,5.0,100,0.00,,,0.00,TxWx,2013-03-19 11:08:00,
2013-03-19 07:13:00,22.0,22.0,29.66,East,90,5.0,5.0,100,0.00,,,0.00,TxWx,2013-03-19 11:13:00,
2013-03-19 07:19:00,22.0,22.0,29.66,ESE,112,6.0,6.0,100,0.00,,,0.00,TxWx,2013-03-19 11:19:00,
2013-03-19 07:24:00,22.0,22.0,29.66,SE,135,3.0,4.0,100,0.00,,,0.00,TxWx,2013-03-19 11:24:00,
2013-03-19 07:29:00,22.0,22.0,29.66,SE,135,4.0,4.0,100,0.00,,,0.00,TxWx,2013-03-19 11:29:00,
2013-03-19 07:35:00,22.0,22.0,29.66,SE,135,1.0,2.0,100,0.00,,,0.00,TxWx,2013-03-19 11:35:00,
2013-03-19 07:40:00,22.0,22.0,29.66,ESE,112,2.0,3.0,100,0.00,,,0.00,TxWx,2013-03-19 11:40:00,
2013-03-19 07:45:00,22.0,22.0,29.66,East,90,1.0,2.0,100,0.00,,,0.00,TxWx,2013-03-19 11:45:00,
2013-03-19 07:51:00,22.0,22.0,29.66,ENE,67,4.0,5.0,100,0.00,,,0.00,TxWx,2013-03-19 11:51:00,
2013-03-19 07:56:00,22.0,22.0,29.66,ESE,112,3.0,5.0,100,0.00,,,0.00,TxWx,2013-03-19 11:56:00,
2013-03-19 08:01:00,22.0,22.0,29.66,ESE,112,3.0,3.0,100,0.00,,,0.00,TxWx,2013-03-19 12:01:00,
2013-03-19 08:07:00,22.0,22.0,29.66,East,90,4.0,7.0,100,0.00,,,0.00,TxWx,2013-03-19 12:07:00,
2013-03-19 08:12:00,22.0,22.0,29.65,NNE,22,3.0,5.0,100,0.00,,,0.00,TxWx,2013-03-19 12:12:00,
2013-03-19 08:17:00,22.0,22.0,29.65,SE,135,2.0,3.0,100,0.00,,,0.00,TxWx,2013-03-19 12:17:00,
2013-03-19 08:22:00,22.0,22.0,29.65,SE,135,4.0,4.0,100,0.00,,,0.00,TxWx,2013-03-19 12:22:00,
2013-03-19 08:27:00,22.0,22.0,29.65,ESE,112,2.0,3.0,100,0.00,,,0.00,TxWx,2013-03-19 12:27:00,
2013-03-19 08:33:00,22.0,22.0,29.64,ESE,112,2.0,3.0,100,0.00,,,0.00,TxWx,2013-03-19 12:33:00,
2013-03-19 08:38:00,22.0,22.0,29.64,East,90,2.0,3.0,100,0.00,,,0.00,TxWx,2013-03-19 12:38:00,
2013-03-19 08:43:00,22.0,22.0,29.64,SSE,157,3.0,3.0,100,0.00,,,0.00,TxWx,2013-03-19 12:43:00,
2013-03-19 08:48:00,23.0,23.0,29.64,SE,135,2.0,4.0,100,0.00,,,0.00,TxWx,2013-03-19 12:48:00,
2013-03-19 08:53:00,23.0,23.0,29.64,SSE,157,2.0,2.0,100,0.00,,,0.00,TxWx,2013-03-19 12:53:00,
2013-03-19 08:59:00,23.0,23.0,29.64,ENE,67,1.0,3.0,100,0.00,,,0.00,TxWx,2013-03-19 12:59:00,
2013-03-19 09:04:00,23.0,23.0,29.64,ESE,112,5.0,5.0,100,0.00,,,0.00,TxWx,2013-03-19 13:04:00,
2013-03-19 09:09:00,23.0,23.0,29.64,ESE,112,4.0,4.0,100,0.00,,,0.00,TxWx,2013-03-19 13:09:00,
2013-03-19 09:14:00,23.0,23.0,29.64,SE,135,5.0,5.0,100,0.00,,,0.00,TxWx,2013-03-19 13:14:00,
2013-03-19 09:30:00,23.0,23.0,29.63,ESE,112,3.0,5.0,100,0.00,,,0.00,TxWx,2013-03-19 13:30:00,
2013-03-19 09:31:00,27.0,27.0,29.50,SE,135,1.0,3.0,100,0.00,,,0.00,TxWx,2013-03-19 13:31:00,
2013-03-19 09:32:00,27.0,27.0,29.50,ESE,112,1.0,1.0,100,0.00,,,0.00,TxWx,2013-03-19 13:32:00,
2013-03-19 09:33:00,27.0,27.0,29.50,SSE,157,1.0,1.0,100,0.00,,,0.00,TxWx,2013-03-19 13:33:00,
2013-03-19 09:34:00,27.0,27.0,29.50,WSW,247,3.0,3.0,100,0.00,,,0.00,TxWx,2013-03-19 13:34:00,
2013-03-19 09:36:00,23.0,23.0,29.63,ESE,112,5.0,5.0,100,0.00,,,0.00,TxWx,2013-03-19 13:36:00,
2013-03-19 09:41:00,23.0,23.0,29.63,ESE,112,3.0,5.0,100,0.00,,,0.00,TxWx,2013-03-19 13:41:00,
2013-03-19 09:46:00,23.0,23.0,29.63,ESE,112,3.0,5.0,100,0.00,,,0.00,TxWx,2013-03-19 13:46:00,
2013-03-19 09:51:00,24.0,24.0,29.63,ESE,112,4.0,4.0,100,0.00,,,0.00,TxWx,2013-03-19 13:51:00,
2013-03-19 09:56:00,24.0,24.0,29.63,SSE,157,3.0,3.0,100,0.00,,,0.00,TxWx,2013-03-19 13:56:00,
2013-03-19 10:01:00,24.0,24.0,29.63,ESE,112,3.0,5.0,100,0.00,,,0.00,TxWx,2013-03-19 14:01:00,
2013-03-19 10:06:00,24.0,24.0,29.63,SE,135,5.0,6.0,100,0.00,,,0.00,TxWx,2013-03-19 14:06:00,
2013-03-19 10:12:00,24.0,24.0,29.63,ESE,112,4.0,5.0,100,0.00,,,0.00,TxWx,2013-03-19 14:12:00,
2013-03-19 10:17:00,24.0,24.0,29.63,SE,135,3.0,4.0,100,0.00,,,0.00,TxWx,2013-03-19 14:17:00,
2013-03-19 10:22:00,24.0,24.0,29.63,ESE,112,5.0,7.0,100,0.00,,,0.00,TxWx,2013-03-19 14:22:00,
2013-03-19 10:27:00,24.0,24.0,29.63,SE,135,4.0,5.0,100,0.00,,,0.00,TxWx,2013-03-19 14:27:00,
2013-03-19 10:32:00,24.0,24.0,29.63,East,90,4.0,4.0,100,0.00,,,0.00,TxWx,2013-03-19 14:32:00,
2013-03-19 10:37:00,24.0,24.0,29.62,ESE,112,6.0,6.0,100,0.00,,,0.00,TxWx,2013-03-19 14:37:00,
2013-03-19 10:42:00,24.0,24.0,29.62,East,90,4.0,4.0,100,0.00,,,0.00,TxWx,2013-03-19 14:42:00,
2013-03-19 10:47:00,24.0,24.0,29.62,SE,135,5.0,5.0,100,0.00,,,0.00,TxWx,2013-03-19 14:47:00,
2013-03-19 10:52:00,24.0,24.0,29.62,SE,135,4.0,5.0,100,0.00,,,0.00,TxWx,2013-03-19 14:52:00,
2013-03-19 10:57:00,24.0,24.0,29.62,ESE,112,5.0,5.0,100,0.00,,,0.00,TxWx,2013-03-19 14:57:00,
2013-03-19 11:02:00,24.0,24.0,29.62,ESE,112,4.0,4.0,100,0.00,,,0.00,TxWx,2013-03-19 15:02:00,
2013-03-19 11:08:00,24.0,24.0,29.61,ESE,112,6.0,6.0,100,0.00,,,0.00,TxWx,2013-03-19 15:08:00,
2013-03-19 11:13:00,25.0,25.0,29.61,SE,135,5.0,5.0,100,0.00,,,0.00,TxWx,2013-03-19 15:13:00,
2013-03-19 11:18:00,25.0,25.0,29.61,SE,135,5.0,6.0,100,0.00,,,0.00,TxWx,2013-03-19 15:18:00,
2013-03-19 11:23:00,25.0,25.0,29.61,SE,135,3.0,4.0,100,0.00,,,0.00,TxWx,2013-03-19 15:23:00,
2013-03-19 11:28:00,25.0,25.0,29.60,ENE,67,5.0,5.0,100,0.00,,,0.00,TxWx,2013-03-19 15:28:00,
2013-03-19 11:33:00,25.0,25.0,29.60,ESE,112,4.0,4.0,100,0.00,,,0.00,TxWx,2013-03-19 15:33:00,
2013-03-19 11:38:00,25.0,25.0,29.60,ESE,112,5.0,7.0,100,0.00,,,0.00,TxWx,2013-03-19 15:38:00,
2013-03-19 11:43:00,25.0,25.0,29.60,ESE,112,6.0,6.0,100,0.00,,,0.00,TxWx,2013-03-19 15:43:00,
2013-03-19 11:48:00,25.0,25.0,29.60,ESE,112,3.0,3.0,100,0.00,,,0.00,TxWx,2013-03-19 15:48:00,
2013-03-19 11:53:00,25.0,25.0,29.60,ESE,112,5.0,6.0,100,0.00,,,0.00,TxWx,2013-03-19 15:53:00,
2013-03-19 11:58:00,25.0,25.0,29.59,SE,135,5.0,6.0,100,0.00,,,0.00,TxWx,2013-03-19 15:58:00,
2013-03-19 12:03:00,25.0,25.0,29.60,SE,135,2.0,3.0,100,0.00,,,0.00,TxWx,2013-03-19 16:03:00,
2013-03-19 12:08:00,25.0,25.0,29.60,SE,135,1.0,3.0,100,0.00,,,0.00,TxWx,2013-03-19 16:08:00,
2013-03-19 12:13:00,25.0,25.0,29.60,SE,135,5.0,6.0,100,0.00,,,0.00,TxWx,2013-03-19 16:13:00,
2013-03-19 12:19:00,25.0,25.0,29.60,SE,135,3.0,5.0,100,0.00,,,0.00,TxWx,2013-03-19 16:19:00,
2013-03-19 12:24:00,25.0,25.0,29.59,East,90,5.0,7.0,100,0.00,,,0.00,TxWx,2013-03-19 16:24:00,
2013-03-19 12:29:00,25.0,25.0,29.59,SE,135,5.0,6.0,100,0.00,,,0.00,TxWx,2013-03-19 16:29:00,
2013-03-19 12:34:00,25.0,25.0,29.59,ESE,112,8.0,10.0,100,0.00,,,0.00,TxWx,2013-03-19 16:34:00,
2013-03-19 12:39:00,25.0,25.0,29.59,South,180,3.0,4.0,100,0.00,,,0.00,TxWx,2013-03-19 16:39:00,
2013-03-19 12:44:00,26.0,26.0,29.59,SE,135,1.0,2.0,100,0.00,,,0.00,TxWx,2013-03-19 16:44:00,
2013-03-19 12:49:00,26.0,26.0,29.59,West,270,1.0,2.0,100,0.00,,,0.00,TxWx,2013-03-19 16:49:00,
2013-03-19 12:54:00,26.0,26.0,29.59,ENE,67,6.0,8.0,100,0.00,,,0.00,TxWx,2013-03-19 16:54:00,
2013-03-19 12:59:00,26.0,26.0,29.58,ESE,112,6.0,6.0,100,0.00,,,0.00,TxWx,2013-03-19 16:59:00,
2013-03-19 13:04:00,26.0,26.0,29.58,ESE,112,6.0,6.0,100,0.00,,,0.00,TxWx,2013-03-19 17:04:00,
2013-03-19 13:09:00,26.0,26.0,29.57,ESE,112,5.0,6.0,100,0.00,,,0.00,TxWx,2013-03-19 17:09:00,
2013-03-19 13:14:00,26.0,26.0,29.56,East,90,5.0,6.0,100,0.00,,,0.00,TxWx,2013-03-19 17:14:00,
2013-03-19 13:19:00,26.0,26.0,29.55,ENE,67,6.0,8.0,100,0.00,,,0.00,TxWx,2013-03-19 17:19:00,
2013-03-19 13:24:00,26.0,26.0,29.55,East,90,8.0,9.0,100,0.00,,,0.00,TxWx,2013-03-19 17:24:00,
2013-03-19 13:29:00,26.0,26.0,29.55,SE,135,3.0,6.0,100,0.00,,,0.00,TxWx,2013-03-19 17:29:00,
2013-03-19 13:34:00,26.0,26.0,29.54,NE,45,5.0,6.0,100,0.00,,,0.00,TxWx,2013-03-19 17:34:00,
2013-03-19 13:39:00,26.0,26.0,29.54,East,90,5.0,6.0,100,0.00,,,0.00,TxWx,2013-03-19 17:39:00,
2013-03-19 13:44:00,26.0,26.0,29.54,ESE,112,3.0,4.0,100,0.00,,,0.00,TxWx,2013-03-19 17:44:00,
2013-03-19 13:50:00,26.0,26.0,29.54,SE,135,2.0,3.0,100,0.00,,,0.00,TxWx,2013-03-19 17:50:00,
2013-03-19 13:55:00,27.0,27.0,29.53,SE,135,4.0,5.0,100,0.00,,,0.00,TxWx,2013-03-19 17:55:00,
2013-03-19 13:59:00,20.0,20.0,29.53,NNW,337,4.0,4.0,100,0.00,,,0.00,TxWx,2013-03-19 17:59:00,
2013-03-19 14:00:00,27.0,27.0,29.53,South,180,1.0,2.0,100,0.00,,,0.00,TxWx,2013-03-19 18:00:00,
2013-03-19 14:01:00,20.0,20.0,29.53,WNW,292,3.0,3.0,100,0.00,,,0.00,TxWx,2013-03-19 18:01:00,
2013-03-19 14:02:00,20.0,20.0,29.53,WNW,292,6.0,6.0,100,0.00,,,0.00,TxWx,2013-03-19 18:02:00,
2013-03-19 14:03:00,20.0,20.0,29.52,West,270,3.0,3.0,100,0.00,,,0.00,TxWx,2013-03-19 18:03:00,
2013-03-19 14:04:00,20.0,20.0,29.52,WSW,247,3.0,5.0,100,0.00,,,0.00,TxWx,2013-03-19 18:04:00,
2013-03-19 14:05:00,27.0,27.0,29.53,South,180,3.0,3.0,100,0.00,,,0.00,TxWx,2013-03-19 18:05:00,
2013-03-19 14:06:00,20.0,20.0,29.52,North,0,5.0,5.0,100,0.00,,,0.00,TxWx,2013-03-19 18:06:00,
2013-03-19 14:07:00,20.0,20.0,29.52,West,270,4.0,6.0,100,0.00,,,0.00,TxWx,2013-03-19 18:07:00,
2013-03-19 14:10:00,27.0,27.0,29.52,ESE,112,5.0,7.0,100,0.00,,,0.00,TxWx,2013-03-19 18:10:00,
2013-03-19 14:15:00,27.0,27.0,29.52,ESE,112,2.0,2.0,100,0.00,,,0.00,TxWx,2013-03-19 18:15:00,
2013-03-19 14:20:00,27.0,27.0,29.52,SE,135,2.0,2.0,100,0.00,,,0.00,TxWx,2013-03-19 18:20:00,
2013-03-19 14:25:00,27.0,27.0,29.52,SE,135,4.0,5.0,100,0.00,,,0.00,TxWx,2013-03-19 18:25:00,
2013-03-19 14:30:00,27.0,27.0,29.51,SSE,157,1.0,1.0,100,0.00,,,0.00,TxWx,2013-03-19 18:30:00,
2013-03-19 14:35:00,27.0,27.0,29.52,ESE,112,3.0,4.0,100,0.00,,,0.00,TxWx,2013-03-19 18:35:00,
2013-03-19 14:40:00,27.0,27.0,29.52,SE,135,4.0,5.0,100,0.00,,,0.00,TxWx,2013-03-19 18:40:00,
2013-03-19 14:45:00,20.0,20.0,29.51,SSE,157,1.0,3.0,100,0.00,,,0.00,TxWx,2013-03-19 18:45:00,
2013-03-19 14:46:00,27.0,27.0,29.52,SSE,157,5.0,5.0,100,0.00,,,0.00,TxWx,2013-03-19 18:46:00,
2013-03-19 14:50:00,20.0,20.0,29.51,SE,135,1.0,3.0,100,0.00,,,0.00,TxWx,2013-03-19 18:50:00,
2013-03-19 14:51:00,27.0,27.0,29.52,ESE,112,3.0,3.0,100,0.00,,,0.00,TxWx,2013-03-19 18:51:00,
2013-03-19 14:52:00,20.0,20.0,29.51,WNW,292,6.0,6.0,100,0.00,,,0.00,TxWx,2013-03-19 18:52:00,
2013-03-19 14:53:00,20.0,20.0,29.51,WNW,292,1.0,2.0,100,0.00,,,0.00,TxWx,2013-03-19 18:53:00,
2013-03-19 14:54:00,20.0,20.0,29.51,South,180,1.0,3.0,100,0.00,,,0.00,TxWx,2013-03-19 18:54:00,
2013-03-19 14:56:00,27.0,27.0,29.52,ENE,67,4.0,4.0,100,0.00,,,0.00,TxWx,2013-03-19 18:56:00,
2013-03-19 14:57:00,20.0,20.0,29.51,West,270,4.0,4.0,100,0.00,,,0.00,TxWx,2013-03-19 18:57:00,
2013-03-19 14:58:00,20.0,20.0,29.51,WNW,292,5.0,5.0,100,0.00,,,0.00,TxWx,2013-03-19 18:58:00,
2013-03-19 14:59:00,20.0,20.0,29.51,WSW,247,3.0,5.0,100,0.00,,,0.00,TxWx,2013-03-19 18:59:00,
2013-03-19 15:01:00,27.0,27.0,29.52,SE,135,2.0,3.0,100,0.00,,,0.00,TxWx,2013-03-19 19:01:00,
2013-03-19 15:06:00,27.0,27.0,29.52,NNW,337,5.0,6.0,100,0.00,,,0.00,TxWx,2013-03-19 19:06:00,
2013-03-19 15:11:00,27.0,27.0,29.52,ESE,112,3.0,3.0,100,0.00,,,0.00,TxWx,2013-03-19 19:11:00,
2013-03-19 15:16:00,27.0,27.0,29.52,East,90,2.0,3.0,100,0.00,,,0.00,TxWx,2013-03-19 19:16:00,
2013-03-19 15:21:00,27.0,27.0,29.51,East,90,3.0,3.0,100,0.00,,,0.00,TxWx,2013-03-19 19:21:00,
2013-03-19 15:26:00,27.0,27.0,29.51,WSW,247,3.0,5.0,100,0.00,,,0.00,TxWx,2013-03-19 19:26:00,
2013-03-19 15:31:00,27.0,27.0,29.51,ESE,112,3.0,3.0,100,0.00,,,0.00,TxWx,2013-03-19 19:31:00,
2013-03-19 15:37:00,27.0,27.0,29.51,SE,135,3.0,3.0,100,0.00,,,0.00,TxWx,2013-03-19 19:37:00,
2013-03-19 15:42:00,27.0,27.0,29.51,ESE,112,3.0,3.0,100,0.00,,,0.00,TxWx,2013-03-19 19:42:00,
2013-03-19 15:47:00,27.0,27.0,29.50,ESE,112,3.0,3.0,100,0.00,,,0.00,TxWx,2013-03-19 19:47:00,
2013-03-19 15:52:00,27.0,27.0,29.50,ESE,112,4.0,5.0,100,0.00,,,0.00,TxWx,2013-03-19 19:52:00,
2013-03-19 15:57:00,27.0,27.0,29.50,ESE,112,3.0,3.0,100,0.00,,,0.00,TxWx,2013-03-19 19:57:00,
2013-03-19 16:05:00,27.0,27.0,29.50,SW,225,1.0,1.0,100,0.00,,,0.00,TxWx,2013-03-19 20:05:00,
2013-03-19 16:10:00,27.0,27.0,29.50,East,90,4.0,4.0,100,0.00,,,0.00,TxWx,2013-03-19 20:10:00,
2013-03-19 16:16:00,27.0,27.0,29.50,ESE,112,5.0,5.0,100,0.00,,,0.00,TxWx,2013-03-19 20:16:00,
2013-03-19 16:21:00,27.0,27.0,29.50,NNE,22,3.0,5.0,100,0.00,,,0.00,TxWx,2013-03-19 20:21:00,
2013-03-19 16:26:00,27.0,27.0,29.50,ESE,112,3.0,3.0,100,0.00,,,0.00,TxWx,2013-03-19 20:26:00,
2013-03-19 16:31:00,27.0,27.0,29.50,ESE,112,6.0,6.0,100,0.00,,,0.00,TxWx,2013-03-19 20:31:00,
2013-03-19 16:36:00,27.0,27.0,29.50,East,90,4.0,5.0,100,0.00,,,0.00,TxWx,2013-03-19 20:36:00,
2013-03-19 16:41:00,27.0,27.0,29.49,SE,135,5.0,6.0,100,0.00,,,0.00,TxWx,2013-03-19 20:41:00,
2013-03-19 16:46:00,27.0,27.0,29.49,ESE,112,6.0,6.0,100,0.00,,,0.00,TxWx,2013-03-19 20:46:00,
2013-03-19 16:51:00,27.0,27.0,29.49,SE,135,2.0,3.0,100,0.00,,,0.00,TxWx,2013-03-19 20:51:00,
2013-03-19 16:56:00,27.0,27.0,29.49,SE,135,5.0,5.0,100,0.00,,,0.00,TxWx,2013-03-19 20:56:00,
2013-03-19 17:01:00,27.0,27.0,29.49,SE,135,5.0,5.0,100,0.00,,,0.00,TxWx,2013-03-19 21:01:00,
2013-03-19 17:06:00,27.0,27.0,29.49,East,90,5.0,6.0,100,0.00,,,0.00,TxWx,2013-03-19 21:06:00,
2013-03-19 17:11:00,27.0,27.0,29.49,ESE,112,3.0,4.0,100,0.00,,,0.00,TxWx,2013-03-19 21:11:00,
2013-03-19 17:16:00,27.0,27.0,29.49,East,90,3.0,3.0,100,0.00,,,0.00,TxWx,2013-03-19 21:16:00,
2013-03-19 17:21:00,27.0,27.0,29.49,ESE,112,4.0,5.0,100,0.00,,,0.00,TxWx,2013-03-19 21:21:00,
2013-03-19 17:27:00,27.0,27.0,29.49,SE,135,2.0,3.0,100,0.00,,,0.00,TxWx,2013-03-19 21:27:00,
2013-03-19 17:32:00,27.0,27.0,29.49,ESE,112,5.0,6.0,100,0.00,,,0.00,TxWx,2013-03-19 21:32:00,
2013-03-19 17:37:00,27.0,27.0,29.49,ESE,112,3.0,3.0,100,0.00,,,0.00,TxWx,2013-03-19 21:37:00,
2013-03-19 17:42:00,27.0,27.0,29.49,ESE,112,3.0,3.0,100,0.00,,,0.00,TxWx,2013-03-19 21:42:00,
2013-03-19 17:47:00,27.0,27.0,29.49,ESE,112,3.0,5.0,100,0.00,,,0.00,TxWx,2013-03-19 21:47:00,
2013-03-19 17:52:00,27.0,27.0,29.49,ENE,67,4.0,5.0,100,0.00,,,0.00,TxWx,2013-03-19 21:52:00,
2013-03-19 17:57:00,27.0,27.0,29.49,ESE,112,3.0,4.0,100,0.00,,,0.00,TxWx,2013-03-19 21:57:00,
2013-03-19 18:02:00,27.0,27.0,29.49,ENE,67,3.0,3.0,100,0.00,,,0.00,TxWx,2013-03-19 22:02:00,
2013-03-19 18:07:00,27.0,27.0,29.49,SSW,202,1.0,2.0,100,0.00,,,0.00,TxWx,2013-03-19 22:07:00,
2013-03-19 18:12:00,27.0,27.0,29.49,East,90,3.0,3.0,100,0.00,,,0.00,TxWx,2013-03-19 22:12:00,
2013-03-19 18:17:00,28.0,28.0,29.49,ENE,67,2.0,3.0,100,0.00,,,0.00,TxWx,2013-03-19 22:17:00,
2013-03-19 18:22:00,28.0,28.0,29.49,ESE,112,3.0,3.0,100,0.00,,,0.00,TxWx,2013-03-19 22:22:00,
2013-03-19 18:27:00,27.0,27.0,29.49,SSE,157,2.0,2.0,100,0.00,,,0.00,TxWx,2013-03-19 22:27:00,
2013-03-19 18:32:00,27.0,27.0,29.49,SE,135,2.0,3.0,100,0.00,,,0.00,TxWx,2013-03-19 22:32:00,
2013-03-19 18:38:00,27.0,27.0,29.49,SE,135,3.0,3.0,100,0.00,,,0.00,TxWx,2013-03-19 22:38:00,
2013-03-19 18:43:00,27.0,27.0,29.49,SE,135,2.0,2.0,100,0.00,,,0.00,TxWx,2013-03-19 22:43:00,
2013-03-19 18:48:00,27.0,27.0,29.49,ESE,112,3.0,3.0,100,0.00,,,0.00,TxWx,2013-03-19 22:48:00,
2013-03-19 18:53:00,27.0,27.0,29.49,SE,135,3.0,3.0,100,0.00,,,0.00,TxWx,2013-03-19 22:53:00,
2013-03-19 18:58:00,27.0,27.0,29.49,SE,135,2.0,2.0,100,0.00,,,0.00,TxWx,2013-03-19 22:58:00,
2013-03-19 19:01:00,18.0,18.0,29.50,WNW,292,2.0,3.0,100,0.00,,,0.00,TxWx,2013-03-19 23:01:00,
2013-03-19 19:02:00,18.0,18.0,29.50,West,270,6.0,6.0,100,0.00,,,0.00,TxWx,2013-03-19 23:02:00,
2013-03-19 19:03:00,27.0,27.0,29.49,East,90,2.0,3.0,100,0.00,,,0.00,TxWx,2013-03-19 23:03:00,
2013-03-19 19:04:00,18.0,18.0,29.50,West,270,4.0,4.0,100,0.00,,,0.00,TxWx,2013-03-19 23:04:00,
2013-03-19 19:05:00,18.0,18.0,29.50,SSW,202,3.0,3.0,100,0.00,,,0.00,TxWx,2013-03-19 23:05:00,
2013-03-19 19:08:00,27.0,27.0,29.49,ENE,67,3.0,3.0,100,0.00,,,0.00,TxWx,2013-03-19 23:08:00,
2013-03-19 19:10:00,18.0,18.0,29.50,South,180,3.0,4.0,100,0.00,,,0.00,TxWx,2013-03-19 23:10:00,
2013-03-19 19:11:00,18.0,18.0,29.50,West,270,3.0,3.0,100,0.00,,,0.00,TxWx,2013-03-19 23:11:00,
2013-03-19 19:13:00,27.0,27.0,29.49,East,90,2.0,3.0,100,0.00,,,0.00,TxWx,2013-03-19 23:13:00,
2013-03-19 19:18:00,27.0,27.0,29.49,East,90,2.0,3.0,100,0.00,,,0.00,TxWx,2013-03-19 23:18:00,
2013-03-19 19:23:00,27.0,27.0,29.49,ESE,112,3.0,4.0,100,0.00,,,0.00,TxWx,2013-03-19 23:23:00,
2013-03-19 19:28:00,27.0,27.0,29.50,ESE,112,3.0,3.0,100,0.00,,,0.00,TxWx,2013-03-19 23:28:00,
2013-03-19 19:35:00,27.0,27.0,29.51,SW,225,4.0,4.0,100,0.00,,,0.00,TxWx,2013-03-19 23:35:00,
2013-03-19 19:40:00,26.0,26.0,29.51,West,270,8.0,14.0,100,0.00,,,0.00,TxWx,2013-03-19 23:40:00,
2013-03-19 19:45:00,25.0,25.0,29.52,SSW,202,6.0,6.0,100,0.00,,,0.00,TxWx,2013-03-19 23:45:00,
2013-03-19 19:50:00,25.0,25.0,29.52,WNW,292,9.0,14.0,100,0.00,,,0.00,TxWx,2013-03-19 23:50:00,
2013-03-19 19:51:00,16.0,16.0,29.50,NNW,337,1.0,1.0,100,0.00,,,0.00,TxWx,2013-03-19 23:51:00,
2013-03-19 19:52:00,16.0,16.0,29.50,WNW,292,3.0,3.0,100,0.00,,,0.00,TxWx,2013-03-19 23:52:00,
2013-03-19 19:53:00,16.0,16.0,29.50,SSW,202,2.0,3.0,100,0.00,,,0.00,TxWx,2013-03-19 23:53:00,
2013-03-19 19:54:00,16.0,16.0,29.50,WSW,247,4.0,5.0,100,0.00,,,0.00,TxWx,2013-03-19 23:54:00,
2013-03-19 19:55:00,24.0,24.0,29.52,NW,315,8.0,9.0,100,0.00,,,0.00,TxWx,2013-03-19 23:55:00,
2013-03-19 20:01:00,24.0,24.0,29.52,NNW,337,6.0,9.0,100,0.00,,,0.00,TxWx,2013-03-20 00:01:00,
2013-03-19 20:06:00,24.0,24.0,29.53,NW,315,4.0,5.0,100,0.00,,,0.00,TxWx,2013-03-20 00:06:00,
2013-03-19 20:11:00,24.0,24.0,29.53,WNW,292,5.0,7.0,100,0.00,,,0.00,TxWx,2013-03-20 00:11:00,
2013-03-19 20:16:00,24.0,24.0,29.53,WNW,292,8.0,8.0,100,0.00,,,0.00,TxWx,2013-03-20 00:16:00,
2013-03-19 20:21:00,24.0,24.0,29.53,West,270,6.0,6.0,100,0.00,,,0.00,TxWx,2013-03-20 00:21:00,
2013-03-19 20:26:00,24.0,24.0,29.53,NW,315,7.0,7.0,100,0.00,,,0.00,TxWx,2013-03-20 00:26:00,
2013-03-19 20:31:00,24.0,24.0,29.54,WNW,292,9.0,13.0,100,0.00,,,0.00,TxWx,2013-03-20 00:31:00,
2013-03-19 20:36:00,24.0,24.0,29.54,WNW,292,5.0,8.0,100,0.00,,,0.00,TxWx,2013-03-20 00:36:00,
2013-03-19 20:41:00,24.0,24.0,29.54,WNW,292,16.0,21.0,100,0.00,,,0.00,TxWx,2013-03-20 00:41:00,
2013-03-19 20:46:00,23.0,23.0,29.54,West,270,16.0,16.0,100,0.00,,,0.00,TxWx,2013-03-20 00:46:00,
2013-03-19 20:52:00,23.0,23.0,29.55,NW,315,6.0,10.0,100,0.00,,,0.00,TxWx,2013-03-20 00:52:00,
2013-03-19 20:57:00,23.0,23.0,29.55,WSW,247,5.0,7.0,100,0.00,,,0.00,TxWx,2013-03-20 00:57:00,
2013-03-19 21:02:00,23.0,23.0,29.55,West,270,9.0,11.0,100,0.00,,,0.00,TxWx,2013-03-20 01:02:00,
2013-03-19 21:07:00,23.0,23.0,29.55,WNW,292,10.0,12.0,100,0.00,,,0.00,TxWx,2013-03-20 01:07:00,
2013-03-19 21:12:00,22.0,22.0,29.55,NW,315,10.0,10.0,100,0.00,,,0.00,TxWx,2013-03-20 01:12:00,
2013-03-19 21:17:00,22.0,22.0,29.55,WNW,292,3.0,3.0,100,0.00,,,0.00,TxWx,2013-03-20 01:17:00,
2013-03-19 21:22:00,22.0,22.0,29.55,West,270,11.0,11.0,100,0.00,,,0.00,TxWx,2013-03-20 01:22:00,
2013-03-19 21:27:00,22.0,22.0,29.55,WNW,292,11.0,11.0,100,0.00,,,0.00,TxWx,2013-03-20 01:27:00,
2013-03-19 21:32:00,22.0,22.0,29.55,West,270,6.0,6.0,100,0.00,,,0.00,TxWx,2013-03-20 01:32:00,
2013-03-19 21:37:00,22.0,22.0,29.55,SW,225,3.0,5.0,100,0.00,,,0.00,TxWx,2013-03-20 01:37:00,
2013-03-19 21:42:00,22.0,22.0,29.55,WNW,292,3.0,5.0,100,0.00,,,0.00,TxWx,2013-03-20 01:42:00,
2013-03-19 21:47:00,22.0,22.0,29.55,South,180,1.0,2.0,100,0.00,,,0.00,TxWx,2013-03-20 01:47:00,
2013-03-19 21:52:00,22.0,22.0,29.55,WSW,247,4.0,4.0,100,0.00,,,0.00,TxWx,2013-03-20 01:52:00,
2013-03-19 21:57:00,22.0,22.0,29.55,WSW,247,3.0,3.0,100,0.00,,,0.00,TxWx,2013-03-20 01:57:00,
2013-03-19 22:02:00,22.0,22.0,29.55,West,270,2.0,3.0,100,0.00,,,0.00,TxWx,2013-03-20 02:02:00,
2013-03-19 22:08:00,21.0,21.0,29.55,NW,315,3.0,4.0,100,0.00,,,0.00,TxWx,2013-03-20 02:08:00,
2013-03-19 22:12:00,21.0,21.0,29.55,WSW,247,1.0,2.0,100,0.00,,,0.00,TxWx,2013-03-20 02:12:00,
2013-03-19 22:18:00,21.0,21.0,29.55,WSW,247,2.0,2.0,100,0.00,,,0.00,TxWx,2013-03-20 02:18:00,
2013-03-19 22:23:00,21.0,21.0,29.54,WSW,247,3.0,3.0,100,0.00,,,0.00,TxWx,2013-03-20 02:23:00,
2013-03-19 22:28:00,21.0,21.0,29.54,SW,225,2.0,2.0,100,0.00,,,0.00,TxWx,2013-03-20 02:28:00,
2013-03-19 22:33:00,21.0,21.0,29.54,West,270,1.0,1.0,100,0.00,,,0.00,TxWx,2013-03-20 02:33:00,
2013-03-19 22:38:00,21.0,21.0,29.54,West,270,1.0,1.0,100,0.00,,,0.00,TxWx,2013-03-20 02:38:00,
2013-03-19 22:43:00,21.0,21.0,29.54,WNW,292,2.0,3.0,100,0.00,,,0.00,TxWx,2013-03-20 02:43:00,
2013-03-19 22:48:00,21.0,21.0,29.54,WSW,247,3.0,3.0,100,0.00,,,0.00,TxWx,2013-03-20 02:48:00,
2013-03-19 22:53:00,21.0,21.0,29.54,SW,225,5.0,5.0,100,0.00,,,0.00,TxWx,2013-03-20 02:53:00,
2013-03-19 22:58:00,21.0,21.0,29.54,NW,315,2.0,3.0,100,0.00,,,0.00,TxWx,2013-03-20 02:58:00,
2013-03-19 23:03:00,21.0,21.0,29.54,WNW,292,3.0,4.0,100,0.00,,,0.00,TxWx,2013-03-20 03:03:00,
2013-03-19 23:08:00,21.0,21.0,29.54,SSW,202,1.0,1.0,100,0.00,,,0.00,TxWx,2013-03-20 03:08:00,
2013-03-19 23:13:00,21.0,21.0,29.53,SSW,202,2.0,2.0,100,0.00,,,0.00,TxWx,2013-03-20 03:13:00,
2013-03-19 23:18:00,21.0,21.0,29.53,SSW,202,2.0,3.0,100,0.00,,,0.00,TxWx,2013-03-20 03:18:00,
2013-03-19 23:23:00,21.0,21.0,29.53,WNW,292,5.0,7.0,100,0.00,,,0.00,TxWx,2013-03-20 03:23:00,
2013-03-19 23:29:00,21.0,21.0,29.53,WNW,292,5.0,7.0,100,0.00,,,0.00,TxWx,2013-03-20 03:29:00,
2013-03-19 23:34:00,21.0,21.0,29.53,WNW,292,4.0,5.0,100,0.00,,,0.00,TxWx,2013-03-20 03:34:00,
2013-03-19 23:39:00,21.0,21.0,29.53,WNW,292,3.0,5.0,100,0.00,,,0.00,TxWx,2013-03-20 03:39:00,
2013-03-19 23:44:00,21.0,21.0,29.53,SSW,202,1.0,2.0,100,0.00,,,0.00,TxWx,2013-03-20 03:44:00,
2013-03-19 23:49:00,20.0,20.0,29.53,WNW,292,5.0,5.0,100,0.00,,,0.00,TxWx,2013-03-20 03:49:00,
2013-03-19 23:54:00,20.0,20.0,29.53,WNW,292,4.0,5.0,100,0.00,,,0.00,TxWx,2013-03-20 03:54:00,
2013-03-19 23:59:00,20.0,20.0,29.53,WNW,292,4.0,5.0,100,0.00,,,0.00,TxWx,2013-03-20 03:59:00,